sensor_id;sensor_type;location;lat;lon;timestamp;temperature;humidity
51383;DHT22;37475;43.358;1.248;2023-02-28T00:00:50;1.00;75.80
51383;DHT22;37475;43.358;1.248;2023-02-28T00:03:16;1.00;76.10
51383;DHT22;37475;43.358;1.248;2023-02-28T00:05:42;1.00;75.80
51383;DHT22;37475;43.358;1.248;2023-02-28T00:08:08;1.00;76.00
51383;DHT22;37475;43.358;1.248;2023-02-28T00:10:35;1.00;75.50
51383;DHT22;37475;43.358;1.248;2023-02-28T00:13:05;1.10;75.90
51383;DHT22;37475;43.358;1.248;2023-02-28T00:15:32;1.10;75.20
51383;DHT22;37475;43.358;1.248;2023-02-28T00:17:58;1.10;75.50
51383;DHT22;37475;43.358;1.248;2023-02-28T00:20:24;1.10;75.40
51383;DHT22;37475;43.358;1.248;2023-02-28T00:22:52;1.00;75.50
51383;DHT22;37475;43.358;1.248;2023-02-28T00:25:20;1.10;75.50
51383;DHT22;37475;43.358;1.248;2023-02-28T00:27:48;1.00;75.90
51383;DHT22;37475;43.358;1.248;2023-02-28T00:30:17;1.00;75.90
51383;DHT22;37475;43.358;1.248;2023-02-28T00:32:44;1.00;75.70
51383;DHT22;37475;43.358;1.248;2023-02-28T00:35:11;1.00;75.80
51383;DHT22;37475;43.358;1.248;2023-02-28T00:37:37;1.00;75.80
51383;DHT22;37475;43.358;1.248;2023-02-28T00:40:04;1.00;75.50
51383;DHT22;37475;43.358;1.248;2023-02-28T00:42:31;0.90;75.80
51383;DHT22;37475;43.358;1.248;2023-02-28T00:44:58;0.90;75.80
51383;DHT22;37475;43.358;1.248;2023-02-28T00:47:24;0.80;76.20
51383;DHT22;37475;43.358;1.248;2023-02-28T00:49:50;0.70;76.60
51383;DHT22;37475;43.358;1.248;2023-02-28T00:52:15;0.70;76.70
51383;DHT22;37475;43.358;1.248;2023-02-28T00:54:41;0.70;76.60
51383;DHT22;37475;43.358;1.248;2023-02-28T00:57:07;0.70;76.80
51383;DHT22;37475;43.358;1.248;2023-02-28T00:59:33;0.70;77.10
51383;DHT22;37475;43.358;1.248;2023-02-28T01:01:59;0.80;77.30
51383;DHT22;37475;43.358;1.248;2023-02-28T01:04:25;0.90;76.60
51383;DHT22;37475;43.358;1.248;2023-02-28T01:06:51;0.90;76.40
51383;DHT22;37475;43.358;1.248;2023-02-28T01:09:17;1.00;76.20
51383;DHT22;37475;43.358;1.248;2023-02-28T01:11:44;1.00;76.50
51383;DHT22;37475;43.358;1.248;2023-02-28T01:14:14;1.10;76.20
51383;DHT22;37475;43.358;1.248;2023-02-28T01:16:41;1.10;76.40
51383;DHT22;37475;43.358;1.248;2023-02-28T01:19:07;1.10;75.90
51383;DHT22;37475;43.358;1.248;2023-02-28T01:21:33;1.10;75.90
51383;DHT22;37475;43.358;1.248;2023-02-28T01:24:00;1.20;75.40
51383;DHT22;37475;43.358;1.248;2023-02-28T01:26:26;1.20;75.30
51383;DHT22;37475;43.358;1.248;2023-02-28T01:28:52;1.20;75.40
51383;DHT22;37475;43.358;1.248;2023-02-28T01:31:20;1.20;75.50
51383;DHT22;37475;43.358;1.248;2023-02-28T01:33:46;1.20;75.80
51383;DHT22;37475;43.358;1.248;2023-02-28T01:36:19;1.30;75.70
51383;DHT22;37475;43.358;1.248;2023-02-28T01:38:46;1.30;75.50
51383;DHT22;37475;43.358;1.248;2023-02-28T01:41:28;1.30;75.20
51383;DHT22;37475;43.358;1.248;2023-02-28T01:44:05;1.30;75.00
51383;DHT22;37475;43.358;1.248;2023-02-28T01:46:52;1.40;75.00
51383;DHT22;37475;43.358;1.248;2023-02-28T01:49:18;1.30;74.90
51383;DHT22;37475;43.358;1.248;2023-02-28T01:51:55;1.40;74.40
51383;DHT22;37475;43.358;1.248;2023-02-28T01:54:31;1.40;74.60
51383;DHT22;37475;43.358;1.248;2023-02-28T01:57:04;1.40;75.10
51383;DHT22;37475;43.358;1.248;2023-02-28T01:59:54;1.40;75.10
51383;DHT22;37475;43.358;1.248;2023-02-28T02:02:27;1.40;74.80
51383;DHT22;37475;43.358;1.248;2023-02-28T02:05:01;1.40;74.70
51383;DHT22;37475;43.358;1.248;2023-02-28T02:07:35;1.40;75.10
51383;DHT22;37475;43.358;1.248;2023-02-28T02:10:45;1.40;74.60
51383;DHT22;37475;43.358;1.248;2023-02-28T02:19:07;1.40;75.30
51383;DHT22;37475;43.358;1.248;2023-02-28T02:35:57;1.40;75.20
51383;DHT22;37475;43.358;1.248;2023-02-28T02:39:06;1.40;75.10
51383;DHT22;37475;43.358;1.248;2023-02-28T02:41:49;1.40;74.50
51383;DHT22;37475;43.358;1.248;2023-02-28T02:44:47;1.40;74.60
51383;DHT22;37475;43.358;1.248;2023-02-28T02:47:21;1.40;74.90
51383;DHT22;37475;43.358;1.248;2023-02-28T02:49:54;1.40;75.00
51383;DHT22;37475;43.358;1.248;2023-02-28T02:52:25;1.40;75.00
51383;DHT22;37475;43.358;1.248;2023-02-28T02:54:58;1.40;75.00
51383;DHT22;37475;43.358;1.248;2023-02-28T02:57:34;1.40;75.10
51383;DHT22;37475;43.358;1.248;2023-02-28T03:00:04;1.30;75.30
51383;DHT22;37475;43.358;1.248;2023-02-28T03:02:35;1.40;75.30
51383;DHT22;37475;43.358;1.248;2023-02-28T03:05:12;1.30;75.60
51383;DHT22;37475;43.358;1.248;2023-02-28T03:07:43;1.40;75.10
51383;DHT22;37475;43.358;1.248;2023-02-28T03:24:18;1.30;75.70
51383;DHT22;37475;43.358;1.248;2023-02-28T03:26:57;1.30;75.60
51383;DHT22;37475;43.358;1.248;2023-02-28T03:29:39;1.30;75.60
51383;DHT22;37475;43.358;1.248;2023-02-28T03:37:53;1.30;75.40
51383;DHT22;37475;43.358;1.248;2023-02-28T03:40:27;1.30;75.40
51383;DHT22;37475;43.358;1.248;2023-02-28T03:43:01;1.30;75.70
51383;DHT22;37475;43.358;1.248;2023-02-28T03:45:32;1.30;75.50
51383;DHT22;37475;43.358;1.248;2023-02-28T03:51:09;1.30;75.00
51383;DHT22;37475;43.358;1.248;2023-02-28T03:54:01;1.30;75.60
51383;DHT22;37475;43.358;1.248;2023-02-28T03:56:48;1.30;74.90
51383;DHT22;37475;43.358;1.248;2023-02-28T03:59:40;1.30;74.80
51383;DHT22;37475;43.358;1.248;2023-02-28T04:02:09;1.30;74.60
51383;DHT22;37475;43.358;1.248;2023-02-28T04:04:35;1.30;75.00
51383;DHT22;37475;43.358;1.248;2023-02-28T04:07:04;1.30;74.70
51383;DHT22;37475;43.358;1.248;2023-02-28T04:09:31;1.30;74.90
51383;DHT22;37475;43.358;1.248;2023-02-28T04:11:58;1.20;75.20
51383;DHT22;37475;43.358;1.248;2023-02-28T04:14:24;1.30;74.60
51383;DHT22;37475;43.358;1.248;2023-02-28T04:16:50;1.20;74.80
51383;DHT22;37475;43.358;1.248;2023-02-28T04:19:16;1.20;74.60
51383;DHT22;37475;43.358;1.248;2023-02-28T04:21:48;1.20;75.00
51383;DHT22;37475;43.358;1.248;2023-02-28T04:24:18;1.20;74.80
51383;DHT22;37475;43.358;1.248;2023-02-28T04:26:50;1.20;75.10
51383;DHT22;37475;43.358;1.248;2023-02-28T04:29:37;1.10;75.00
51383;DHT22;37475;43.358;1.248;2023-02-28T04:32:03;1.00;75.50
51383;DHT22;37475;43.358;1.248;2023-02-28T04:34:31;1.00;75.50
51383;DHT22;37475;43.358;1.248;2023-02-28T04:36:57;0.90;75.90
51383;DHT22;37475;43.358;1.248;2023-02-28T04:39:24;1.00;75.50
51383;DHT22;37475;43.358;1.248;2023-02-28T04:41:50;1.00;75.50
51383;DHT22;37475;43.358;1.248;2023-02-28T04:44:16;0.90;75.90
51383;DHT22;37475;43.358;1.248;2023-02-28T04:46:43;0.90;75.90
51383;DHT22;37475;43.358;1.248;2023-02-28T04:49:12;0.90;75.80
51383;DHT22;37475;43.358;1.248;2023-02-28T04:51:38;0.90;76.10
51383;DHT22;37475;43.358;1.248;2023-02-28T04:54:04;0.90;76.10
51383;DHT22;37475;43.358;1.248;2023-02-28T04:56:31;0.80;76.50
51383;DHT22;37475;43.358;1.248;2023-02-28T04:58:56;0.80;76.50
51383;DHT22;37475;43.358;1.248;2023-02-28T05:01:28;0.80;76.50
51383;DHT22;37475;43.358;1.248;2023-02-28T05:03:57;0.70;76.90
51383;DHT22;37475;43.358;1.248;2023-02-28T05:06:26;0.70;76.80
51383;DHT22;37475;43.358;1.248;2023-02-28T05:08:53;0.70;76.90
51383;DHT22;37475;43.358;1.248;2023-02-28T05:13:48;0.60;77.10
51383;DHT22;37475;43.358;1.248;2023-02-28T05:16:15;0.40;77.60
51383;DHT22;37475;43.358;1.248;2023-02-28T05:18:41;0.30;77.90
51383;DHT22;37475;43.358;1.248;2023-02-28T05:21:23;0.30;78.00
51383;DHT22;37475;43.358;1.248;2023-02-28T05:23:53;0.40;77.70
51383;DHT22;37475;43.358;1.248;2023-02-28T05:26:19;0.40;77.70
51383;DHT22;37475;43.358;1.248;2023-02-28T05:28:45;0.40;77.60
51383;DHT22;37475;43.358;1.248;2023-02-28T05:31:11;0.40;77.60
51383;DHT22;37475;43.358;1.248;2023-02-28T05:33:37;0.40;77.40
51383;DHT22;37475;43.358;1.248;2023-02-28T05:36:04;0.40;77.30
51383;DHT22;37475;43.358;1.248;2023-02-28T05:38:30;0.50;77.60
51383;DHT22;37475;43.358;1.248;2023-02-28T05:40:56;0.50;76.90
51383;DHT22;37475;43.358;1.248;2023-02-28T05:43:22;0.40;77.00
51383;DHT22;37475;43.358;1.248;2023-02-28T05:45:48;0.40;77.10
51383;DHT22;37475;43.358;1.248;2023-02-28T05:48:14;0.40;77.20
51383;DHT22;37475;43.358;1.248;2023-02-28T05:50:40;0.30;77.40
51383;DHT22;37475;43.358;1.248;2023-02-28T05:53:06;0.30;77.50
51383;DHT22;37475;43.358;1.248;2023-02-28T05:55:32;0.10;77.90
51383;DHT22;37475;43.358;1.248;2023-02-28T05:57:57;0.10;77.80
51383;DHT22;37475;43.358;1.248;2023-02-28T06:00:24;0.10;77.90
51383;DHT22;37475;43.358;1.248;2023-02-28T06:02:50;0.10;78.00
51383;DHT22;37475;43.358;1.248;2023-02-28T06:05:17;0.00;78.20
51383;DHT22;37475;43.358;1.248;2023-02-28T06:07:44;0.00;78.10
51383;DHT22;37475;43.358;1.248;2023-02-28T06:10:11;0.00;78.20
51383;DHT22;37475;43.358;1.248;2023-02-28T06:12:38;0.00;78.40
51383;DHT22;37475;43.358;1.248;2023-02-28T06:15:04;0.00;78.50
51383;DHT22;37475;43.358;1.248;2023-02-28T06:17:30;0.00;78.60
51383;DHT22;37475;43.358;1.248;2023-02-28T06:19:56;0.00;78.70
51383;DHT22;37475;43.358;1.248;2023-02-28T06:22:22;-3276.70;78.60
51383;DHT22;37475;43.358;1.248;2023-02-28T06:24:48;0.00;78.80
51383;DHT22;37475;43.358;1.248;2023-02-28T06:27:14;-3276.70;78.90
51383;DHT22;37475;43.358;1.248;2023-02-28T06:29:40;-3276.70;79.40
51383;DHT22;37475;43.358;1.248;2023-02-28T06:32:06;-3276.70;79.20
51383;DHT22;37475;43.358;1.248;2023-02-28T06:34:32;-3276.70;79.20
51383;DHT22;37475;43.358;1.248;2023-02-28T06:36:59;-3276.70;79.30
51383;DHT22;37475;43.358;1.248;2023-02-28T06:39:28;-3276.70;79.50
51383;DHT22;37475;43.358;1.248;2023-02-28T06:41:55;-3276.70;79.70
51383;DHT22;37475;43.358;1.248;2023-02-28T06:44:22;0.00;79.50
51383;DHT22;37475;43.358;1.248;2023-02-28T06:46:48;0.00;79.30
51383;DHT22;37475;43.358;1.248;2023-02-28T06:49:15;0.00;79.20
51383;DHT22;37475;43.358;1.248;2023-02-28T06:51:42;0.00;79.10
51383;DHT22;37475;43.358;1.248;2023-02-28T06:54:11;0.10;78.80
51383;DHT22;37475;43.358;1.248;2023-02-28T06:56:37;0.10;78.70
51383;DHT22;37475;43.358;1.248;2023-02-28T06:59:03;0.10;78.70
51383;DHT22;37475;43.358;1.248;2023-02-28T07:01:30;0.10;78.50
51383;DHT22;37475;43.358;1.248;2023-02-28T07:03:57;0.20;78.40
51383;DHT22;37475;43.358;1.248;2023-02-28T07:06:23;0.20;78.10
51383;DHT22;37475;43.358;1.248;2023-02-28T07:08:51;0.30;77.90
51383;DHT22;37475;43.358;1.248;2023-02-28T07:11:18;0.40;78.00
51383;DHT22;37475;43.358;1.248;2023-02-28T07:13:46;0.30;78.00
51383;DHT22;37475;43.358;1.248;2023-02-28T07:16:13;0.40;78.40
51383;DHT22;37475;43.358;1.248;2023-02-28T07:18:39;0.40;78.20
51383;DHT22;37475;43.358;1.248;2023-02-28T07:21:07;0.40;78.00
51383;DHT22;37475;43.358;1.248;2023-02-28T07:23:34;0.40;78.20
51383;DHT22;37475;43.358;1.248;2023-02-28T07:26:00;0.50;78.50
51383;DHT22;37475;43.358;1.248;2023-02-28T07:28:27;0.60;78.60
51383;DHT22;37475;43.358;1.248;2023-02-28T07:30:53;0.60;77.80
51383;DHT22;37475;43.358;1.248;2023-02-28T07:33:19;0.60;77.30
51383;DHT22;37475;43.358;1.248;2023-02-28T07:35:45;0.70;77.50
51383;DHT22;37475;43.358;1.248;2023-02-28T07:38:11;0.70;77.80
51383;DHT22;37475;43.358;1.248;2023-02-28T07:40:39;0.80;77.40
51383;DHT22;37475;43.358;1.248;2023-02-28T07:43:05;0.90;77.00
51383;DHT22;37475;43.358;1.248;2023-02-28T07:45:31;0.90;77.20
51383;DHT22;37475;43.358;1.248;2023-02-28T07:48:00;1.00;76.50
51383;DHT22;37475;43.358;1.248;2023-02-28T07:50:26;1.00;76.80
51383;DHT22;37475;43.358;1.248;2023-02-28T07:52:57;1.10;76.60
51383;DHT22;37475;43.358;1.248;2023-02-28T07:55:24;1.20;76.60
51383;DHT22;37475;43.358;1.248;2023-02-28T07:57:50;1.20;76.80
51383;DHT22;37475;43.358;1.248;2023-02-28T08:00:16;1.30;76.20
51383;DHT22;37475;43.358;1.248;2023-02-28T08:02:41;1.40;75.40
51383;DHT22;37475;43.358;1.248;2023-02-28T08:05:08;1.50;76.10
51383;DHT22;37475;43.358;1.248;2023-02-28T08:07:34;1.60;74.00
51383;DHT22;37475;43.358;1.248;2023-02-28T08:10:00;1.70;74.50
51383;DHT22;37475;43.358;1.248;2023-02-28T08:12:26;1.80;72.80
51383;DHT22;37475;43.358;1.248;2023-02-28T08:14:52;1.90;71.90
51383;DHT22;37475;43.358;1.248;2023-02-28T08:17:17;1.90;72.20
51383;DHT22;37475;43.358;1.248;2023-02-28T08:19:46;2.00;71.30
51383;DHT22;37475;43.358;1.248;2023-02-28T08:22:12;2.10;71.30
51383;DHT22;37475;43.358;1.248;2023-02-28T08:24:40;2.10;70.90
51383;DHT22;37475;43.358;1.248;2023-02-28T08:27:07;2.20;71.40
51383;DHT22;37475;43.358;1.248;2023-02-28T08:29:33;2.20;70.90
51383;DHT22;37475;43.358;1.248;2023-02-28T08:31:59;2.10;71.10
51383;DHT22;37475;43.358;1.248;2023-02-28T08:34:25;2.10;71.00
51383;DHT22;37475;43.358;1.248;2023-02-28T08:36:51;1.90;70.70
51383;DHT22;37475;43.358;1.248;2023-02-28T08:39:16;2.00;71.60
51383;DHT22;37475;43.358;1.248;2023-02-28T08:41:43;2.10;72.00
51383;DHT22;37475;43.358;1.248;2023-02-28T08:44:09;2.20;71.20
51383;DHT22;37475;43.358;1.248;2023-02-28T08:46:35;2.20;70.20
51383;DHT22;37475;43.358;1.248;2023-02-28T08:49:01;2.40;71.60
51383;DHT22;37475;43.358;1.248;2023-02-28T08:51:28;2.50;70.10
51383;DHT22;37475;43.358;1.248;2023-02-28T08:53:57;2.60;69.80
51383;DHT22;37475;43.358;1.248;2023-02-28T08:56:24;2.60;67.70
51383;DHT22;37475;43.358;1.248;2023-02-28T08:58:51;2.60;67.30
51383;DHT22;37475;43.358;1.248;2023-02-28T09:01:21;2.60;68.00
51383;DHT22;37475;43.358;1.248;2023-02-28T09:03:50;2.70;69.00
51383;DHT22;37475;43.358;1.248;2023-02-28T09:06:18;2.70;69.00
51383;DHT22;37475;43.358;1.248;2023-02-28T09:08:45;2.70;68.40
51383;DHT22;37475;43.358;1.248;2023-02-28T09:11:11;2.90;68.20
51383;DHT22;37475;43.358;1.248;2023-02-28T09:13:37;3.10;67.70
51383;DHT22;37475;43.358;1.248;2023-02-28T09:16:06;3.30;68.20
51383;DHT22;37475;43.358;1.248;2023-02-28T09:18:37;3.60;66.40
51383;DHT22;37475;43.358;1.248;2023-02-28T09:21:08;3.50;64.80
51383;DHT22;37475;43.358;1.248;2023-02-28T09:23:36;3.40;64.40
51383;DHT22;37475;43.358;1.248;2023-02-28T09:26:05;3.50;64.00
51383;DHT22;37475;43.358;1.248;2023-02-28T09:28:31;3.60;64.60
51383;DHT22;37475;43.358;1.248;2023-02-28T09:30:57;3.90;66.50
51383;DHT22;37475;43.358;1.248;2023-02-28T09:33:25;3.80;63.10
51383;DHT22;37475;43.358;1.248;2023-02-28T09:35:57;3.80;65.20
51383;DHT22;37475;43.358;1.248;2023-02-28T09:38:24;4.00;66.50
51383;DHT22;37475;43.358;1.248;2023-02-28T09:41:01;4.00;64.20
51383;DHT22;37475;43.358;1.248;2023-02-28T09:43:38;3.90;64.10
51383;DHT22;37475;43.358;1.248;2023-02-28T09:48:53;4.20;64.30
51383;DHT22;37475;43.358;1.248;2023-02-28T09:54:05;4.30;63.00
51383;DHT22;37475;43.358;1.248;2023-02-28T09:56:36;4.70;64.50
51383;DHT22;37475;43.358;1.248;2023-02-28T09:59:14;4.60;61.70
51383;DHT22;37475;43.358;1.248;2023-02-28T10:02:00;4.50;63.10
51383;DHT22;37475;43.358;1.248;2023-02-28T10:04:53;4.60;63.20
51383;DHT22;37475;43.358;1.248;2023-02-28T10:07:35;4.70;62.10
51383;DHT22;37475;43.358;1.248;2023-02-28T10:10:33;4.80;62.00
51383;DHT22;37475;43.358;1.248;2023-02-28T10:13:20;4.70;63.10
51383;DHT22;37475;43.358;1.248;2023-02-28T10:15:55;4.90;62.70
51383;DHT22;37475;43.358;1.248;2023-02-28T10:18:54;5.10;63.10
51383;DHT22;37475;43.358;1.248;2023-02-28T10:21:37;5.00;61.50
51383;DHT22;37475;43.358;1.248;2023-02-28T10:24:14;4.40;63.00
51383;DHT22;37475;43.358;1.248;2023-02-28T10:26:47;4.50;63.70
51383;DHT22;37475;43.358;1.248;2023-02-28T10:29:14;4.50;63.20
51383;DHT22;37475;43.358;1.248;2023-02-28T10:31:40;4.50;61.70
51383;DHT22;37475;43.358;1.248;2023-02-28T10:34:07;4.50;60.60
51383;DHT22;37475;43.358;1.248;2023-02-28T10:36:37;4.50;61.50
51383;DHT22;37475;43.358;1.248;2023-02-28T10:42:30;4.40;61.50
51383;DHT22;37475;43.358;1.248;2023-02-28T10:45:10;4.30;61.60
51383;DHT22;37475;43.358;1.248;2023-02-28T10:48:03;4.30;61.90
51383;DHT22;37475;43.358;1.248;2023-02-28T10:56:02;4.40;61.30
51383;DHT22;37475;43.358;1.248;2023-02-28T11:01:41;4.20;63.10
51383;DHT22;37475;43.358;1.248;2023-02-28T11:04:33;4.20;61.70
51383;DHT22;37475;43.358;1.248;2023-02-28T11:07:14;4.40;62.30
51383;DHT22;37475;43.358;1.248;2023-02-28T11:09:48;4.40;60.30
51383;DHT22;37475;43.358;1.248;2023-02-28T11:12:29;4.40;61.40
51383;DHT22;37475;43.358;1.248;2023-02-28T11:15:28;4.30;60.60
51383;DHT22;37475;43.358;1.248;2023-02-28T11:20:38;4.20;62.30
51383;DHT22;37475;43.358;1.248;2023-02-28T11:23:11;4.20;61.70
51383;DHT22;37475;43.358;1.248;2023-02-28T11:25:39;4.40;62.60
51383;DHT22;37475;43.358;1.248;2023-02-28T11:28:21;4.30;61.50
51383;DHT22;37475;43.358;1.248;2023-02-28T11:33:50;4.40;61.20
51383;DHT22;37475;43.358;1.248;2023-02-28T11:36:24;4.30;59.70
51383;DHT22;37475;43.358;1.248;2023-02-28T11:38:56;4.50;60.10
51383;DHT22;37475;43.358;1.248;2023-02-28T11:47:17;4.60;61.00
51383;DHT22;37475;43.358;1.248;2023-02-28T11:53:22;4.80;61.30
51383;DHT22;37475;43.358;1.248;2023-02-28T11:56:18;4.70;60.30
51383;DHT22;37475;43.358;1.248;2023-02-28T12:05:30;4.90;61.00
51383;DHT22;37475;43.358;1.248;2023-02-28T12:08:06;4.90;59.60
51383;DHT22;37475;43.358;1.248;2023-02-28T12:19:30;4.30;62.50
51383;DHT22;37475;43.358;1.248;2023-02-28T12:22:27;4.40;61.80
51383;DHT22;37475;43.358;1.248;2023-02-28T12:27:44;4.20;60.90
51383;DHT22;37475;43.358;1.248;2023-02-28T12:33:05;4.40;59.40
51383;DHT22;37475;43.358;1.248;2023-02-28T12:35:58;4.50;61.80
51383;DHT22;37475;43.358;1.248;2023-02-28T12:41:12;4.60;59.70
51383;DHT22;37475;43.358;1.248;2023-02-28T12:44:03;4.90;57.20
51383;DHT22;37475;43.358;1.248;2023-02-28T12:46:41;5.20;59.50
51383;DHT22;37475;43.358;1.248;2023-02-28T12:49:22;5.10;56.20
51383;DHT22;37475;43.358;1.248;2023-02-28T12:51:51;5.10;56.10
51383;DHT22;37475;43.358;1.248;2023-02-28T12:57:34;5.20;56.70
51383;DHT22;37475;43.358;1.248;2023-02-28T13:00:24;5.20;59.20
51383;DHT22;37475;43.358;1.248;2023-02-28T13:03:06;5.20;57.90
51383;DHT22;37475;43.358;1.248;2023-02-28T13:16:57;5.70;58.20
51383;DHT22;37475;43.358;1.248;2023-02-28T13:19:30;5.50;55.50
51383;DHT22;37475;43.358;1.248;2023-02-28T13:21:58;5.50;54.80
51383;DHT22;37475;43.358;1.248;2023-02-28T13:24:47;5.40;54.40
51383;DHT22;37475;43.358;1.248;2023-02-28T13:29:42;5.30;55.20
51383;DHT22;37475;43.358;1.248;2023-02-28T13:35:12;5.20;55.30
51383;DHT22;37475;43.358;1.248;2023-02-28T13:37:36;5.30;54.60
51383;DHT22;37475;43.358;1.248;2023-02-28T13:42:36;5.40;57.00
51383;DHT22;37475;43.358;1.248;2023-02-28T13:45:24;5.50;56.10
51383;DHT22;37475;43.358;1.248;2023-02-28T13:48:02;5.60;56.60
51383;DHT22;37475;43.358;1.248;2023-02-28T14:02:03;5.00;57.00
51383;DHT22;37475;43.358;1.248;2023-02-28T14:04:39;5.10;56.40
51383;DHT22;37475;43.358;1.248;2023-02-28T14:07:28;5.30;58.40
51383;DHT22;37475;43.358;1.248;2023-02-28T14:10:04;5.20;56.20
51383;DHT22;37475;43.358;1.248;2023-02-28T14:12:53;5.30;58.10
51383;DHT22;37475;43.358;1.248;2023-02-28T14:18:40;5.50;56.60
51383;DHT22;37475;43.358;1.248;2023-02-28T14:21:27;5.60;56.70
51383;DHT22;37475;43.358;1.248;2023-02-28T14:30:40;5.50;57.50
51383;DHT22;37475;43.358;1.248;2023-02-28T14:38:45;7.60;49.60
51383;DHT22;37475;43.358;1.248;2023-02-28T14:41:21;7.90;49.50
51383;DHT22;37475;43.358;1.248;2023-02-28T14:43:57;8.20;50.40
51383;DHT22;37475;43.358;1.248;2023-02-28T14:46:30;7.40;46.70
51383;DHT22;37475;43.358;1.248;2023-02-28T14:49:04;7.40;50.00
51383;DHT22;37475;43.358;1.248;2023-02-28T14:51:32;8.00;46.70
51383;DHT22;37475;43.358;1.248;2023-02-28T14:54:01;6.70;47.60
51383;DHT22;37475;43.358;1.248;2023-02-28T14:56:39;6.30;51.70
51383;DHT22;37475;43.358;1.248;2023-02-28T14:59:27;5.90;51.80
51383;DHT22;37475;43.358;1.248;2023-02-28T15:02:20;5.60;54.20
51383;DHT22;37475;43.358;1.248;2023-02-28T15:05:36;5.70;50.40
51383;DHT22;37475;43.358;1.248;2023-02-28T15:08:16;6.20;50.60
51383;DHT22;37475;43.358;1.248;2023-02-28T15:11:00;6.00;50.20
51383;DHT22;37475;43.358;1.248;2023-02-28T15:13:44;5.30;50.20
51383;DHT22;37475;43.358;1.248;2023-02-28T15:16:16;5.40;52.80
51383;DHT22;37475;43.358;1.248;2023-02-28T15:18:44;5.40;52.00
51383;DHT22;37475;43.358;1.248;2023-02-28T15:21:19;6.20;49.70
51383;DHT22;37475;43.358;1.248;2023-02-28T15:24:01;6.30;49.30
51383;DHT22;37475;43.358;1.248;2023-02-28T15:26:38;5.90;49.90
51383;DHT22;37475;43.358;1.248;2023-02-28T15:29:10;5.40;50.40
51383;DHT22;37475;43.358;1.248;2023-02-28T15:31:48;5.30;52.60
51383;DHT22;37475;43.358;1.248;2023-02-28T15:38:12;5.30;52.30
51383;DHT22;37475;43.358;1.248;2023-02-28T15:40:36;5.20;51.60
51383;DHT22;37475;43.358;1.248;2023-02-28T15:43:06;5.10;51.80
51383;DHT22;37475;43.358;1.248;2023-02-28T15:51:21;5.00;53.60
51383;DHT22;37475;43.358;1.248;2023-02-28T15:54:32;4.90;53.40
51383;DHT22;37475;43.358;1.248;2023-02-28T15:57:05;5.00;53.40
51383;DHT22;37475;43.358;1.248;2023-02-28T15:59:36;5.20;52.90
51383;DHT22;37475;43.358;1.248;2023-02-28T16:02:16;5.20;54.70
51383;DHT22;37475;43.358;1.248;2023-02-28T16:05:12;5.20;54.00
51383;DHT22;37475;43.358;1.248;2023-02-28T16:07:42;5.20;54.20
51383;DHT22;37475;43.358;1.248;2023-02-28T16:10:11;5.10;53.50
51383;DHT22;37475;43.358;1.248;2023-02-28T16:12:40;5.10;52.60
51383;DHT22;37475;43.358;1.248;2023-02-28T16:15:17;5.00;52.40
51383;DHT22;37475;43.358;1.248;2023-02-28T16:17:45;4.90;54.10
51383;DHT22;37475;43.358;1.248;2023-02-28T16:20:20;4.90;53.60
51383;DHT22;37475;43.358;1.248;2023-02-28T16:22:51;4.90;52.60
51383;DHT22;37475;43.358;1.248;2023-02-28T16:25:20;4.90;53.10
51383;DHT22;37475;43.358;1.248;2023-02-28T16:27:50;4.80;53.80
51383;DHT22;37475;43.358;1.248;2023-02-28T16:30:24;4.70;53.10
51383;DHT22;37475;43.358;1.248;2023-02-28T16:32:52;4.70;55.50
51383;DHT22;37475;43.358;1.248;2023-02-28T16:35:20;4.70;53.50
51383;DHT22;37475;43.358;1.248;2023-02-28T16:37:47;4.60;54.70
51383;DHT22;37475;43.358;1.248;2023-02-28T16:40:16;4.60;54.70
51383;DHT22;37475;43.358;1.248;2023-02-28T16:42:47;4.70;54.80
51383;DHT22;37475;43.358;1.248;2023-02-28T16:45:20;4.70;54.90
51383;DHT22;37475;43.358;1.248;2023-02-28T16:47:48;4.80;55.10
51383;DHT22;37475;43.358;1.248;2023-02-28T16:50:19;4.70;54.90
51383;DHT22;37475;43.358;1.248;2023-02-28T16:52:47;4.90;55.60
51383;DHT22;37475;43.358;1.248;2023-02-28T16:55:13;4.80;56.20
51383;DHT22;37475;43.358;1.248;2023-02-28T16:57:39;4.90;56.70
51383;DHT22;37475;43.358;1.248;2023-02-28T17:00:07;4.80;56.40
51383;DHT22;37475;43.358;1.248;2023-02-28T17:02:35;4.90;56.10
51383;DHT22;37475;43.358;1.248;2023-02-28T17:05:01;4.90;56.50
51383;DHT22;37475;43.358;1.248;2023-02-28T17:07:27;4.80;56.90
51383;DHT22;37475;43.358;1.248;2023-02-28T17:09:53;4.80;57.50
51383;DHT22;37475;43.358;1.248;2023-02-28T17:12:19;4.70;56.40
51383;DHT22;37475;43.358;1.248;2023-02-28T17:14:45;4.70;56.60
51383;DHT22;37475;43.358;1.248;2023-02-28T17:17:17;4.60;56.20
51383;DHT22;37475;43.358;1.248;2023-02-28T17:19:46;4.60;56.80
51383;DHT22;37475;43.358;1.248;2023-02-28T17:22:12;4.60;56.90
51383;DHT22;37475;43.358;1.248;2023-02-28T17:24:38;4.60;57.20
51383;DHT22;37475;43.358;1.248;2023-02-28T17:27:04;4.60;57.10
51383;DHT22;37475;43.358;1.248;2023-02-28T17:29:30;4.50;56.80
51383;DHT22;37475;43.358;1.248;2023-02-28T17:31:56;4.50;57.10
51383;DHT22;37475;43.358;1.248;2023-02-28T17:34:22;4.50;57.20
51383;DHT22;37475;43.358;1.248;2023-02-28T17:36:50;4.40;57.10
51383;DHT22;37475;43.358;1.248;2023-02-28T17:39:18;4.40;57.30
51383;DHT22;37475;43.358;1.248;2023-02-28T17:41:54;4.40;57.00
51383;DHT22;37475;43.358;1.248;2023-02-28T17:44:21;4.40;57.50
51383;DHT22;37475;43.358;1.248;2023-02-28T17:46:49;4.30;57.60
51383;DHT22;37475;43.358;1.248;2023-02-28T17:49:18;4.20;57.30
51383;DHT22;37475;43.358;1.248;2023-02-28T17:51:44;4.20;57.70
51383;DHT22;37475;43.358;1.248;2023-02-28T17:54:11;4.20;57.40
51383;DHT22;37475;43.358;1.248;2023-02-28T17:56:37;4.10;57.30
51383;DHT22;37475;43.358;1.248;2023-02-28T17:59:03;4.20;57.30
51383;DHT22;37475;43.358;1.248;2023-02-28T18:01:29;4.20;57.20
51383;DHT22;37475;43.358;1.248;2023-02-28T18:03:55;4.20;56.90
51383;DHT22;37475;43.358;1.248;2023-02-28T18:06:24;4.20;57.10
51383;DHT22;37475;43.358;1.248;2023-02-28T18:08:53;4.10;57.90
51383;DHT22;37475;43.358;1.248;2023-02-28T18:11:20;4.10;58.60
51383;DHT22;37475;43.358;1.248;2023-02-28T18:13:50;4.10;58.50
51383;DHT22;37475;43.358;1.248;2023-02-28T18:16:19;4.10;57.80
51383;DHT22;37475;43.358;1.248;2023-02-28T18:18:46;4.10;57.40
51383;DHT22;37475;43.358;1.248;2023-02-28T18:21:14;4.10;57.80
51383;DHT22;37475;43.358;1.248;2023-02-28T18:23:41;4.10;57.80
51383;DHT22;37475;43.358;1.248;2023-02-28T18:26:16;4.00;58.50
51383;DHT22;37475;43.358;1.248;2023-02-28T18:28:44;4.00;58.70
51383;DHT22;37475;43.358;1.248;2023-02-28T18:31:18;4.10;58.60
51383;DHT22;37475;43.358;1.248;2023-02-28T18:33:48;4.10;60.20
51383;DHT22;37475;43.358;1.248;2023-02-28T18:36:15;4.10;60.80
51383;DHT22;37475;43.358;1.248;2023-02-28T18:38:41;4.10;59.90
51383;DHT22;37475;43.358;1.248;2023-02-28T18:41:08;4.20;60.20
51383;DHT22;37475;43.358;1.248;2023-02-28T18:43:36;4.20;60.10
51383;DHT22;37475;43.358;1.248;2023-02-28T18:46:10;4.10;60.10
51383;DHT22;37475;43.358;1.248;2023-02-28T18:48:37;4.00;60.20
51383;DHT22;37475;43.358;1.248;2023-02-28T18:51:12;3.80;61.80